Olaton, KY (42361)

11:35 PM CDT on April 18, 2015 (GMT -0500)
Madison & Render St | | Change Station
CLOSE
Current Station
Personal Weather Station
Location: Hartford, KY
Elevation: 423 ft
Nearby Weather Stations
Active Advisory: Flood Warning

Elev 423 ft 37.45 °N, 86.90 °W | Updated 8 minutes ago

Mostly Cloudy
Mostly Cloudy
70.3 °F
Feels Like 77 °F
N
3.0
Wind Variable Wind from SE
Gusts 7.2 mph

Today
High -- | Low -- °F
--% Chance of Precip.
Yesterday
High -- | Low -- °F
Precip. -- in
6:08 AM 7:24 PM
New Moon, 0% visible
Pressure 29.86 in
Visibility 10.0 miles
Clouds Scattered Clouds 9000 ft
Heat Index 77 °F
Dew Point 53 °F
Humidity 54%
Rainfall in
Snow Depth Not available.
UV 0 out of 12
Pollen 10.50 out of 12
Air Quality Not available.
Flu Activity Local Activity
METAR KOWB 190356Z AUTO 08005KT 10SM SCT090 22/09 A2987 RMK AO2 TSNO T02160094 SLP112

More Conditions Fewer Conditions

Pressure 29.86 in
Visibility 10.0 miles
Clouds Scattered Clouds 9000 ft
Heat Index 77 °F
Dew Point 53 °F
Humidity 54%
Rainfall in
Snow Depth Not available.
UV 0 out of 12
Pollen 10.50 out of 12
Air Quality Not available.
Flu Activity Local Activity
METAR KOWB 190356Z AUTO 08005KT 10SM SCT090 22/09 A2987 RMK AO2 TSNO T02160094 SLP112

More Conditions Fewer Conditions

10-Day Weather Forecast

Almanac

Astronomy

Apr. 18, 2015 Rise Set
Actual Time
Civil Twilight
Nautical Twilight
Astronomical Twilight
Moon
Length of Visible Light
Length of Day
Tomorrow will be .
, % of the Moon is Illuminated

Today's Extremes

State Highs State Lows

Community

WunderPhotos

Upload Photos

1,814,723 photos uploaded!

WunderBlogs® & News

Nearby

Air Quality

  Air Quality AQ Index Pollutant
Not available.

Snow Depth

Station Depth Elevation

Earthquake Activity

City Distance Mag. Time & Date
Minimum magnitude displayed is 2.5.

Coastal Water Temperatures

Place Temperature

Stations

Nearby Weather Stations

Station Location Temp. Windchill Dew Point Humidity Wind Precip. Elev Updated Type
                   
Flood Warning
Statement as of 10:12 PM EDT on April 18, 2015

The Flood Warning continues for
the Green River at Rochester.
* Until further notice.
* Flood stage is 17.0 feet.
* Forecast... the river is forecast to have a maximum value of 21.2
feet Sunday morning.
* Flood history... this crest compares to a previous crest of 21.4
feet on Apr 15 2011.



Lat... Lon 3739 8678 3727 8697 3718 8690 3728 8680


Rl